Carl, Iowa
Current Conditions -  °F | °C
As of 9:35 AM on Friday 28 Nov 2014 (Local Time) from KCSQ Reporting Station
Clear Clear  
Wind Chill: -6°   Ceiling: Unl
Heat Index:   Visibility: 10mi
Dew Point: -3°   Wind: 15mph
Humidity: 80%   Direction: 200°SSW
Pressure: 29.9"   Gusts: NA
Location:  41.0285°N, 94.7568°W
Report Text: KCSQ 281535Z AUTO 20013KT 10SM CLR 00/M03 A2990 RMK AO2
Loading
Personal Weather Stations






























Interactive Weather Map New forecast layout! Learn more

10-Day Weather Forecast

Advertisements
Track Severe Weather on mobile